sensor_id;sensor_type;location;lat;lon;timestamp;pressure;altitude;pressure_sealevel;temperature;humidity
4836;BME280;66719;51.226;6.902;2023-01-25T00:00:29;102878.34;;;1.44;100.00
4836;BME280;66719;51.226;6.902;2023-01-25T00:02:55;102881.66;;;1.41;100.00
4836;BME280;66719;51.226;6.902;2023-01-25T00:05:22;102876.56;;;1.42;100.00
4836;BME280;66719;51.226;6.902;2023-01-25T00:07:49;102874.00;;;1.42;100.00
4836;BME280;66719;51.226;6.902;2023-01-25T00:10:18;102875.34;;;1.36;100.00
4836;BME280;66719;51.226;6.902;2023-01-25T00:12:45;102866.72;;;1.35;100.00
4836;BME280;66719;51.226;6.902;2023-01-25T00:15:12;102865.84;;;1.35;100.00
4836;BME280;66719;51.226;6.902;2023-01-25T00:17:39;102872.69;;;1.34;100.00
4836;BME280;66719;51.226;6.902;2023-01-25T00:20:06;102866.88;;;1.38;100.00
4836;BME280;66719;51.226;6.902;2023-01-25T00:22:33;102861.72;;;1.38;100.00
4836;BME280;66719;51.226;6.902;2023-01-25T00:24:59;102852.13;;;1.36;100.00
4836;BME280;66719;51.226;6.902;2023-01-25T00:27:26;102858.25;;;1.38;100.00
4836;BME280;66719;51.226;6.902;2023-01-25T00:29:52;102855.66;;;1.38;100.00
4836;BME280;66719;51.226;6.902;2023-01-25T00:34:47;102857.44;;;1.39;100.00
4836;BME280;66719;51.226;6.902;2023-01-25T00:37:35;102849.69;;;1.39;100.00
4836;BME280;66719;51.226;6.902;2023-01-25T00:40:03;102848.66;;;1.35;100.00
4836;BME280;66719;51.226;6.902;2023-01-25T00:42:30;102846.91;;;1.34;100.00
4836;BME280;66719;51.226;6.902;2023-01-25T00:44:57;102846.09;;;1.35;100.00
4836;BME280;66719;51.226;6.902;2023-01-25T00:47:23;102838.81;;;1.28;100.00
4836;BME280;66719;51.226;6.902;2023-01-25T00:49:50;102836.25;;;1.28;100.00
4836;BME280;66719;51.226;6.902;2023-01-25T00:52:16;102829.38;;;1.29;100.00
4836;BME280;66719;51.226;6.902;2023-01-25T00:54:43;102836.31;;;1.30;100.00
4836;BME280;66719;51.226;6.902;2023-01-25T00:57:09;102835.34;;;1.28;100.00
4836;BME280;66719;51.226;6.902;2023-01-25T00:59:36;102827.53;;;1.26;100.00
4836;BME280;66719;51.226;6.902;2023-01-25T01:02:03;102831.06;;;1.28;100.00
4836;BME280;66719;51.226;6.902;2023-01-25T01:04:29;102829.56;;;1.32;100.00
4836;BME280;66719;51.226;6.902;2023-01-25T01:06:56;102830.13;;;1.26;100.00
4836;BME280;66719;51.226;6.902;2023-01-25T01:09:23;102831.06;;;1.28;100.00
4836;BME280;66719;51.226;6.902;2023-01-25T01:11:50;102826.72;;;1.27;100.00
4836;BME280;66719;51.226;6.902;2023-01-25T01:14:17;102823.25;;;1.27;100.00
4836;BME280;66719;51.226;6.902;2023-01-25T01:16:44;102825.91;;;1.28;100.00
4836;BME280;66719;51.226;6.902;2023-01-25T01:19:11;102820.75;;;1.28;100.00
4836;BME280;66719;51.226;6.902;2023-01-25T01:21:38;102827.38;;;1.23;100.00
4836;BME280;66719;51.226;6.902;2023-01-25T01:24:05;102829.97;;;1.23;100.00
4836;BME280;66719;51.226;6.902;2023-01-25T01:26:31;102825.75;;;1.25;100.00
4836;BME280;66719;51.226;6.902;2023-01-25T01:28:58;102826.00;;;1.30;100.00
4836;BME280;66719;51.226;6.902;2023-01-25T01:31:25;102825.28;;;1.32;100.00
4836;BME280;66719;51.226;6.902;2023-01-25T01:33:54;102827.06;;;1.33;100.00
4836;BME280;66719;51.226;6.902;2023-01-25T01:36:23;102826.09;;;1.31;100.00
4836;BME280;66719;51.226;6.902;2023-01-25T01:38:50;102827.47;;;1.25;100.00
4836;BME280;66719;51.226;6.902;2023-01-25T01:41:17;102832.47;;;1.22;100.00
4836;BME280;66719;51.226;6.902;2023-01-25T01:43:44;102835.03;;;1.22;100.00
4836;BME280;66719;51.226;6.902;2023-01-25T01:46:21;102829.31;;;1.27;100.00
4836;BME280;66719;51.226;6.902;2023-01-25T01:49:00;102831.88;;;1.27;100.00
4836;BME280;66719;51.226;6.902;2023-01-25T01:54:11;102822.31;;;1.25;100.00
4836;BME280;66719;51.226;6.902;2023-01-25T01:59:11;102824.16;;;1.27;100.00
4836;BME280;66719;51.226;6.902;2023-01-25T02:01:38;102821.56;;;1.27;100.00
4836;BME280;66719;51.226;6.902;2023-01-25T02:04:05;102814.16;;;1.17;100.00
4836;BME280;66719;51.226;6.902;2023-01-25T02:06:41;102809.81;;;1.16;100.00
4836;BME280;66719;51.226;6.902;2023-01-25T02:09:10;102821.88;;;1.17;100.00
4836;BME280;66719;51.226;6.902;2023-01-25T02:11:37;102819.38;;;1.19;100.00
4836;BME280;66719;51.226;6.902;2023-01-25T02:14:04;102813.50;;;1.21;100.00
4836;BME280;66719;51.226;6.902;2023-01-25T02:16:31;102806.75;;;1.23;100.00
4836;BME280;66719;51.226;6.902;2023-01-25T02:18:58;102822.38;;;1.26;100.00
4836;BME280;66719;51.226;6.902;2023-01-25T02:21:35;102816.25;;;1.24;100.00
4836;BME280;66719;51.226;6.902;2023-01-25T02:24:11;102810.75;;;1.18;100.00
4836;BME280;66719;51.226;6.902;2023-01-25T02:26:40;102812.72;;;1.22;100.00
4836;BME280;66719;51.226;6.902;2023-01-25T02:29:07;102815.44;;;1.25;100.00
4836;BME280;66719;51.226;6.902;2023-01-25T02:31:35;102807.72;;;1.25;100.00
4836;BME280;66719;51.226;6.902;2023-01-25T02:34:02;102810.91;;;1.21;100.00
4836;BME280;66719;51.226;6.902;2023-01-25T02:36:30;102801.78;;;1.11;100.00
4836;BME280;66719;51.226;6.902;2023-01-25T02:39:04;102788.59;;;1.05;100.00
4836;BME280;66719;51.226;6.902;2023-01-25T02:41:40;102792.88;;;1.05;100.00
4836;BME280;66719;51.226;6.902;2023-01-25T02:44:15;102799.72;;;1.04;100.00
4836;BME280;66719;51.226;6.902;2023-01-25T02:46:43;102795.69;;;1.09;100.00
4836;BME280;66719;51.226;6.902;2023-01-25T02:49:14;102796.41;;;1.07;100.00
4836;BME280;66719;51.226;6.902;2023-01-25T02:51:45;102802.59;;;1.10;100.00
4836;BME280;66719;51.226;6.902;2023-01-25T02:54:13;102797.78;;;1.17;100.00
4836;BME280;66719;51.226;6.902;2023-01-25T02:56:40;102799.94;;;1.09;100.00
4836;BME280;66719;51.226;6.902;2023-01-25T02:59:08;102799.00;;;1.07;100.00
4836;BME280;66719;51.226;6.902;2023-01-25T03:01:36;102792.88;;;1.05;100.00
4836;BME280;66719;51.226;6.902;2023-01-25T03:04:04;102797.03;;;1.03;100.00
4836;BME280;66719;51.226;6.902;2023-01-25T03:06:32;102795.19;;;1.00;100.00
4836;BME280;66719;51.226;6.902;2023-01-25T03:08:58;102795.56;;;0.92;100.00
4836;BME280;66719;51.226;6.902;2023-01-25T03:11:25;102798.97;;;0.91;100.00
4836;BME280;66719;51.226;6.902;2023-01-25T03:13:52;102792.75;;;0.87;100.00
4836;BME280;66719;51.226;6.902;2023-01-25T03:16:18;102798.97;;;0.91;100.00
4836;BME280;66719;51.226;6.902;2023-01-25T03:18:45;102790.50;;;0.93;100.00
4836;BME280;66719;51.226;6.902;2023-01-25T03:21:17;102795.09;;;0.99;100.00
4836;BME280;66719;51.226;6.902;2023-01-25T03:23:45;102788.34;;;1.01;100.00
4836;BME280;66719;51.226;6.902;2023-01-25T03:26:18;102788.50;;;1.04;100.00
4836;BME280;66719;51.226;6.902;2023-01-25T03:28:45;102788.59;;;1.05;100.00
4836;BME280;66719;51.226;6.902;2023-01-25T03:31:13;102790.19;;;1.03;100.00
4836;BME280;66719;51.226;6.902;2023-01-25T03:33:41;102780.75;;;1.04;100.00
4836;BME280;66719;51.226;6.902;2023-01-25T03:36:08;102777.28;;;1.03;100.00
4836;BME280;66719;51.226;6.902;2023-01-25T03:38:35;102777.41;;;1.05;100.00
4836;BME280;66719;51.226;6.902;2023-01-25T03:41:02;102789.63;;;1.09;100.00
4836;BME280;66719;51.226;6.902;2023-01-25T03:43:29;102785.22;;;1.06;100.00
4836;BME280;66719;51.226;6.902;2023-01-25T03:45:58;102779.97;;;1.05;100.00
4836;BME280;66719;51.226;6.902;2023-01-25T03:48:26;102780.13;;;1.08;100.00
4836;BME280;66719;51.226;6.902;2023-01-25T03:50:55;102775.03;;;1.09;100.00
4836;BME280;66719;51.226;6.902;2023-01-25T03:53:24;102769.66;;;1.05;100.00
4836;BME280;66719;51.226;6.902;2023-01-25T03:56:00;102771.44;;;1.06;100.00
4836;BME280;66719;51.226;6.902;2023-01-25T03:58:28;102761.75;;;1.02;100.00
4836;BME280;66719;51.226;6.902;2023-01-25T04:00:58;102760.94;;;1.03;100.00
4836;BME280;66719;51.226;6.902;2023-01-25T04:03:25;102764.16;;;0.99;100.00
4836;BME280;66719;51.226;6.902;2023-01-25T04:05:52;102761.81;;;1.03;100.00
4836;BME280;66719;51.226;6.902;2023-01-25T04:08:19;102756.09;;;1.09;100.00
4836;BME280;66719;51.226;6.902;2023-01-25T04:10:51;102746.59;;;1.08;100.00
4836;BME280;66719;51.226;6.902;2023-01-25T04:13:19;102743.75;;;1.03;100.00
4836;BME280;66719;51.226;6.902;2023-01-25T04:15:45;102741.44;;;1.08;100.00
4836;BME280;66719;51.226;6.902;2023-01-25T04:18:13;102731.94;;;1.07;100.00
4836;BME280;66719;51.226;6.902;2023-01-25T04:20:39;102724.34;;;1.10;100.00
4836;BME280;66719;51.226;6.902;2023-01-25T04:23:09;102730.25;;;1.07;100.00
4836;BME280;66719;51.226;6.902;2023-01-25T04:25:36;102729.19;;;1.04;100.00
4836;BME280;66719;51.226;6.902;2023-01-25T04:28:03;102729.19;;;1.04;100.00
4836;BME280;66719;51.226;6.902;2023-01-25T04:30:30;102721.28;;;1.01;100.00
4836;BME280;66719;51.226;6.902;2023-01-25T04:33:01;102720.66;;;1.05;100.00
4836;BME280;66719;51.226;6.902;2023-01-25T04:35:28;102722.19;;;1.01;100.00
4836;BME280;66719;51.226;6.902;2023-01-25T04:37:56;102716.69;;;0.95;100.00
4836;BME280;66719;51.226;6.902;2023-01-25T04:40:23;102719.03;;;0.91;100.00
4836;BME280;66719;51.226;6.902;2023-01-25T04:42:50;102711.31;;;0.91;100.00
4836;BME280;66719;51.226;6.902;2023-01-25T04:45:16;102728.19;;;0.85;100.00
4836;BME280;66719;51.226;6.902;2023-01-25T04:47:42;102727.56;;;0.73;100.00
4836;BME280;66719;51.226;6.902;2023-01-25T04:50:09;102714.00;;;0.77;100.00
4836;BME280;66719;51.226;6.902;2023-01-25T04:52:36;102721.94;;;0.80;100.00
4836;BME280;66719;51.226;6.902;2023-01-25T04:55:02;102716.78;;;0.80;100.00
4836;BME280;66719;51.226;6.902;2023-01-25T04:57:29;102707.34;;;0.81;100.00
4836;BME280;66719;51.226;6.902;2023-01-25T04:59:55;102705.81;;;0.84;100.00
4836;BME280;66719;51.226;6.902;2023-01-25T05:02:22;102700.16;;;0.75;100.00
4836;BME280;66719;51.226;6.902;2023-01-25T05:04:48;102694.53;;;0.66;100.00
4836;BME280;66719;51.226;6.902;2023-01-25T05:07:15;102695.81;;;0.74;100.00
4836;BME280;66719;51.226;6.902;2023-01-25T05:09:41;102697.13;;;0.82;100.00
4836;BME280;66719;51.226;6.902;2023-01-25T05:12:08;102691.06;;;0.82;100.00
4836;BME280;66719;51.226;6.902;2023-01-25T05:14:38;102690.13;;;0.80;100.00
4836;BME280;66719;51.226;6.902;2023-01-25T05:17:06;102697.28;;;0.85;100.00
4836;BME280;66719;51.226;6.902;2023-01-25T05:19:33;102694.06;;;0.90;100.00
4836;BME280;66719;51.226;6.902;2023-01-25T05:22:01;102695.75;;;0.73;100.00
4836;BME280;66719;51.226;6.902;2023-01-25T05:24:30;102693.72;;;0.67;100.00
4836;BME280;66719;51.226;6.902;2023-01-25T05:26:57;102692.28;;;0.72;100.00
4836;BME280;66719;51.226;6.902;2023-01-25T05:29:27;102683.59;;;0.70;100.00
4836;BME280;66719;51.226;6.902;2023-01-25T05:31:54;102692.63;;;0.78;100.00
4836;BME280;66719;51.226;6.902;2023-01-25T05:34:21;102679.06;;;0.82;100.00
4836;BME280;66719;51.226;6.902;2023-01-25T05:36:47;102689.72;;;0.89;100.00
4836;BME280;66719;51.226;6.902;2023-01-25T05:39:14;102679.47;;;0.90;100.00
4836;BME280;66719;51.226;6.902;2023-01-25T05:41:40;102686.41;;;0.91;100.00
4836;BME280;66719;51.226;6.902;2023-01-25T05:44:07;102677.13;;;0.95;100.00
4836;BME280;66719;51.226;6.902;2023-01-25T05:46:33;102692.84;;;0.99;100.00
4836;BME280;66719;51.226;6.902;2023-01-25T05:49:00;102687.84;;;1.02;100.00
4836;BME280;66719;51.226;6.902;2023-01-25T05:51:26;102687.78;;;1.01;100.00
4836;BME280;66719;51.226;6.902;2023-01-25T05:53:54;102684.38;;;1.02;100.00
4836;BME280;66719;51.226;6.902;2023-01-25T05:56:21;102681.00;;;1.03;100.00
4836;BME280;66719;51.226;6.902;2023-01-25T05:58:55;102681.00;;;1.03;100.00
4836;BME280;66719;51.226;6.902;2023-01-25T06:01:22;102690.34;;;1.01;100.00
4836;BME280;66719;51.226;6.902;2023-01-25T06:03:50;102683.50;;;1.01;100.00
4836;BME280;66719;51.226;6.902;2023-01-25T06:06:16;102678.41;;;1.03;100.00
4836;BME280;66719;51.226;6.902;2023-01-25T06:08:43;102674.94;;;1.02;100.00
4836;BME280;66719;51.226;6.902;2023-01-25T06:11:12;102669.09;;;1.05;100.00
4836;BME280;66719;51.226;6.902;2023-01-25T06:13:39;102672.44;;;1.04;100.00
4836;BME280;66719;51.226;6.902;2023-01-25T06:16:06;102666.41;;;1.03;100.00
4836;BME280;66719;51.226;6.902;2023-01-25T06:18:34;102665.63;;;1.04;100.00
4836;BME280;66719;51.226;6.902;2023-01-25T06:21:01;102665.63;;;1.04;100.00
4836;BME280;66719;51.226;6.902;2023-01-25T06:23:28;102678.00;;;0.95;100.00
4836;BME280;66719;51.226;6.902;2023-01-25T06:25:59;102671.19;;;0.96;100.00
4836;BME280;66719;51.226;6.902;2023-01-25T06:28:29;102672.72;;;0.92;100.00
4836;BME280;66719;51.226;6.902;2023-01-25T06:31:02;102674.53;;;0.95;100.00
4836;BME280;66719;51.226;6.902;2023-01-25T06:33:29;102672.97;;;0.97;100.00
4836;BME280;66719;51.226;6.902;2023-01-25T06:36:03;102668.63;;;0.96;100.00
4836;BME280;66719;51.226;6.902;2023-01-25T06:38:30;102672.97;;;0.97;100.00
4836;BME280;66719;51.226;6.902;2023-01-25T06:40:59;102668.75;;;0.82;100.00
4836;BME280;66719;51.226;6.902;2023-01-25T06:43:26;102673.66;;;0.78;100.00
4836;BME280;66719;51.226;6.902;2023-01-25T06:45:59;102674.41;;;0.75;100.00
4836;BME280;66719;51.226;6.902;2023-01-25T06:48:27;102670.19;;;0.77;100.00
4836;BME280;66719;51.226;6.902;2023-01-25T06:50:56;102676.66;;;0.85;100.00
4836;BME280;66719;51.226;6.902;2023-01-25T06:53:25;102667.41;;;0.89;100.00
4836;BME280;66719;51.226;6.902;2023-01-25T06:55:59;102671.81;;;0.92;100.00
4836;BME280;66719;51.226;6.902;2023-01-25T06:58:27;102678.81;;;0.94;100.00
4836;BME280;66719;51.226;6.902;2023-01-25T07:03:29;102668.91;;;1.02;100.00
4836;BME280;66719;51.226;6.902;2023-01-25T07:05:59;102670.69;;;1.03;100.00
4836;BME280;66719;51.226;6.902;2023-01-25T07:08:27;102674.53;;;0.95;100.00
4836;BME280;66719;51.226;6.902;2023-01-25T07:10:55;102675.34;;;0.94;100.00
4836;BME280;66719;51.226;6.902;2023-01-25T07:13:23;102676.25;;;0.94;100.00
4836;BME280;66719;51.226;6.902;2023-01-25T07:16:04;102672.72;;;0.92;100.00
4836;BME280;66719;51.226;6.902;2023-01-25T07:18:31;102674.19;;;0.87;100.00
4836;BME280;66719;51.226;6.902;2023-01-25T07:21:06;102675.06;;;0.88;100.00
4836;BME280;66719;51.226;6.902;2023-01-25T07:23:33;102673.25;;;0.87;100.00
4836;BME280;66719;51.226;6.902;2023-01-25T07:26:00;102665.84;;;0.76;100.00
4836;BME280;66719;51.226;6.902;2023-01-25T07:28:27;102668.44;;;0.76;100.00
4836;BME280;66719;51.226;6.902;2023-01-25T07:30:53;102673.03;;;0.82;100.00
4836;BME280;66719;51.226;6.902;2023-01-25T07:33:20;102671.50;;;0.85;100.00
4836;BME280;66719;51.226;6.902;2023-01-25T07:35:46;102667.06;;;0.83;100.00
4836;BME280;66719;51.226;6.902;2023-01-25T07:38:16;102666.25;;;0.84;100.00
4836;BME280;66719;51.226;6.902;2023-01-25T07:40:43;102665.53;;;0.87;100.00
4836;BME280;66719;51.226;6.902;2023-01-25T07:43:09;102671.19;;;0.79;100.00
4836;BME280;66719;51.226;6.902;2023-01-25T07:45:36;102665.84;;;0.76;100.00
4836;BME280;66719;51.226;6.902;2023-01-25T07:48:07;102666.44;;;0.71;100.00
4836;BME280;66719;51.226;6.902;2023-01-25T07:50:35;102659.00;;;0.77;100.00
4836;BME280;66719;51.226;6.902;2023-01-25T07:53:01;102664.34;;;0.80;100.00
4836;BME280;66719;51.226;6.902;2023-01-25T07:55:28;102661.69;;;0.78;100.00
4836;BME280;66719;51.226;6.902;2023-01-25T07:57:54;102649.56;;;0.77;100.00
4836;BME280;66719;51.226;6.902;2023-01-25T08:00:21;102656.59;;;0.80;100.00
4836;BME280;66719;51.226;6.902;2023-01-25T08:02:50;102651.53;;;0.81;100.00
4836;BME280;66719;51.226;6.902;2023-01-25T08:05:16;102646.78;;;0.89;100.00
4836;BME280;66719;51.226;6.902;2023-01-25T08:07:44;102658.94;;;0.92;100.00
4836;BME280;66719;51.226;6.902;2023-01-25T08:10:10;102657.38;;;0.95;100.00
4836;BME280;66719;51.226;6.902;2023-01-25T08:12:37;102658.31;;;0.96;100.00
4836;BME280;66719;51.226;6.902;2023-01-25T08:15:04;102657.63;;;1.00;100.00
4836;BME280;66719;51.226;6.902;2023-01-25T08:17:30;102656.19;;;0.89;100.00
4836;BME280;66719;51.226;6.902;2023-01-25T08:19:58;102650.06;;;0.87;100.00
4836;BME280;66719;51.226;6.902;2023-01-25T08:22:26;102650.31;;;0.91;100.00
4836;BME280;66719;51.226;6.902;2023-01-25T08:24:53;102646.03;;;0.92;100.00
4836;BME280;66719;51.226;6.902;2023-01-25T08:27:20;102657.38;;;0.95;100.00
4836;BME280;66719;51.226;6.902;2023-01-25T08:29:46;102648.75;;;0.95;100.00
4836;BME280;66719;51.226;6.902;2023-01-25T08:32:13;102642.09;;;0.98;100.00
4836;BME280;66719;51.226;6.902;2023-01-25T08:34:41;102640.25;;;0.96;100.00
4836;BME280;66719;51.226;6.902;2023-01-25T08:37:07;102638.56;;;0.96;100.00
4836;BME280;66719;51.226;6.902;2023-01-25T08:39:34;102643.13;;;1.02;100.00
4836;BME280;66719;51.226;6.902;2023-01-25T08:42:00;102638.94;;;1.04;100.00
4836;BME280;66719;51.226;6.902;2023-01-25T08:44:27;102630.16;;;1.00;100.00
4836;BME280;66719;51.226;6.902;2023-01-25T08:46:53;102636.19;;;1.01;100.00
4836;BME280;66719;51.226;6.902;2023-01-25T08:49:20;102631.78;;;0.98;100.00
4836;BME280;66719;51.226;6.902;2023-01-25T08:51:46;102636.13;;;0.99;100.00
4836;BME280;66719;51.226;6.902;2023-01-25T08:54:15;102636.88;;;0.97;100.00
4836;BME280;66719;51.226;6.902;2023-01-25T08:56:41;102635.09;;;0.96;100.00
4836;BME280;66719;51.226;6.902;2023-01-25T08:59:10;102647.00;;;0.94;100.00
4836;BME280;66719;51.226;6.902;2023-01-25T09:01:37;102642.16;;;1.00;100.00
4836;BME280;66719;51.226;6.902;2023-01-25T09:04:04;102631.13;;;1.02;100.00
4836;BME280;66719;51.226;6.902;2023-01-25T09:06:31;102630.91;;;0.98;100.00
4836;BME280;66719;51.226;6.902;2023-01-25T09:08:58;102637.16;;;0.87;100.00
4836;BME280;66719;51.226;6.902;2023-01-25T09:11:25;102630.66;;;0.93;100.00
4836;BME280;66719;51.226;6.902;2023-01-25T09:13:52;102624.53;;;0.91;100.00
4836;BME280;66719;51.226;6.902;2023-01-25T09:16:20;102617.81;;;0.95;100.00
4836;BME280;66719;51.226;6.902;2023-01-25T09:19:01;102619.53;;;0.94;100.00
4836;BME280;66719;51.226;6.902;2023-01-25T09:21:28;102618.81;;;0.97;100.00
4836;BME280;66719;51.226;6.902;2023-01-25T09:23:55;102617.06;;;0.96;100.00
4836;BME280;66719;51.226;6.902;2023-01-25T09:26:34;102619.69;;;0.97;100.00
4836;BME280;66719;51.226;6.902;2023-01-25T09:29:02;102617.19;;;0.99;100.00
4836;BME280;66719;51.226;6.902;2023-01-25T09:31:28;102609.38;;;0.97;100.00
4836;BME280;66719;51.226;6.902;2023-01-25T09:33:56;102618.91;;;0.98;100.00
4836;BME280;66719;51.226;6.902;2023-01-25T09:36:23;102609.38;;;0.97;100.00
4836;BME280;66719;51.226;6.902;2023-01-25T09:38:49;102603.97;;;0.93;100.00
4836;BME280;66719;51.226;6.902;2023-01-25T09:44:29;102597.13;;;0.93;100.00
4836;BME280;66719;51.226;6.902;2023-01-25T09:47:04;102589.19;;;0.89;100.00
4836;BME280;66719;51.226;6.902;2023-01-25T09:56:16;102587.22;;;0.84;100.00
4836;BME280;66719;51.226;6.902;2023-01-25T09:58:46;102590.56;;;0.82;100.00
4836;BME280;66719;51.226;6.902;2023-01-25T10:01:33;102587.56;;;0.91;100.00
4836;BME280;66719;51.226;6.902;2023-01-25T10:04:15;102582.72;;;0.97;100.00
4836;BME280;66719;51.226;6.902;2023-01-25T10:06:46;102591.41;;;0.99;100.00
4836;BME280;66719;51.226;6.902;2023-01-25T10:12:20;102585.19;;;0.95;100.00
4836;BME280;66719;51.226;6.902;2023-01-25T10:14:47;102585.38;;;0.98;100.00
4836;BME280;66719;51.226;6.902;2023-01-25T10:17:36;102584.63;;;1.01;100.00
4836;BME280;66719;51.226;6.902;2023-01-25T10:26:21;102575.00;;;0.97;100.00
4836;BME280;66719;51.226;6.902;2023-01-25T10:31:31;102566.50;;;0.99;100.00
4836;BME280;66719;51.226;6.902;2023-01-25T10:34:01;102563.25;;;1.03;100.00
4836;BME280;66719;51.226;6.902;2023-01-25T10:36:35;102568.75;;;1.09;100.00
4836;BME280;66719;51.226;6.902;2023-01-25T10:39:01;102562.06;;;1.13;100.00
4836;BME280;66719;51.226;6.902;2023-01-25T10:41:39;102557.94;;;1.17;100.00
4836;BME280;66719;51.226;6.902;2023-01-25T10:44:11;102550.94;;;1.14;100.00
4836;BME280;66719;51.226;6.902;2023-01-25T10:49:30;102544.88;;;0.96;100.00
4836;BME280;66719;51.226;6.902;2023-01-25T10:52:17;102538.66;;;0.92;100.00
4836;BME280;66719;51.226;6.902;2023-01-25T10:54:46;102533.00;;;0.99;100.00
4836;BME280;66719;51.226;6.902;2023-01-25T10:57:20;102534.69;;;0.99;100.00
4836;BME280;66719;51.226;6.902;2023-01-25T10:59:50;102522.75;;;1.01;100.00
4836;BME280;66719;51.226;6.902;2023-01-25T11:02:37;102527.47;;;1.09;100.00
4836;BME280;66719;51.226;6.902;2023-01-25T11:07:52;102520.09;;;0.99;100.00
4836;BME280;66719;51.226;6.902;2023-01-25T11:10:35;102524.00;;;0.91;100.00
4836;BME280;66719;51.226;6.902;2023-01-25T11:15:43;102509.47;;;0.93;100.00
4836;BME280;66719;51.226;6.902;2023-01-25T11:18:31;102514.06;;;0.99;100.00
4836;BME280;66719;51.226;6.902;2023-01-25T11:21:12;102503.88;;;1.02;100.00
4836;BME280;66719;51.226;6.902;2023-01-25T11:24:14;102497.84;;;1.01;100.00
4836;BME280;66719;51.226;6.902;2023-01-25T11:26:42;102487.78;;;1.06;100.00
4836;BME280;66719;51.226;6.902;2023-01-25T11:29:16;102487.78;;;1.06;100.00
4836;BME280;66719;51.226;6.902;2023-01-25T11:31:48;102481.94;;;1.10;100.00
4836;BME280;66719;51.226;6.902;2023-01-25T11:34:17;102480.19;;;1.09;100.00
4836;BME280;66719;51.226;6.902;2023-01-25T11:42:38;102465.53;;;1.08;100.00
4836;BME280;66719;51.226;6.902;2023-01-25T11:50:44;102439.81;;;0.92;100.00
4836;BME280;66719;51.226;6.902;2023-01-25T11:59:04;102427.34;;;1.01;100.00
4836;BME280;66719;51.226;6.902;2023-01-25T12:02:07;102420.31;;;0.97;100.00
4836;BME280;66719;51.226;6.902;2023-01-25T12:10:25;102395.09;;;0.91;100.00
4836;BME280;66719;51.226;6.902;2023-01-25T12:19:11;102375.84;;;1.02;100.00
4836;BME280;66719;51.226;6.902;2023-01-25T12:24:34;102356.41;;;1.09;100.00
4836;BME280;66719;51.226;6.902;2023-01-25T12:30:12;102344.00;;;1.20;100.00
4836;BME280;66719;51.226;6.902;2023-01-25T12:32:54;102339.00;;;1.23;100.00
4836;BME280;66719;51.226;6.902;2023-01-25T12:35:42;102327.81;;;1.22;100.00
4836;BME280;66719;51.226;6.902;2023-01-25T12:40:57;102316.25;;;1.14;100.00
4836;BME280;66719;51.226;6.902;2023-01-25T12:43:32;102316.63;;;1.04;100.00
4836;BME280;66719;51.226;6.902;2023-01-25T12:46:09;102315.66;;;1.02;100.00
4836;BME280;66719;51.226;6.902;2023-01-25T12:48:42;102312.91;;;0.97;100.00
4836;BME280;66719;51.226;6.902;2023-01-25T12:51:14;102306.03;;;0.98;100.00
4836;BME280;66719;51.226;6.902;2023-01-25T12:53:44;102297.44;;;0.97;100.00
4836;BME280;66719;51.226;6.902;2023-01-25T12:56:29;102284.19;;;0.90;100.00
4836;BME280;66719;51.226;6.902;2023-01-25T12:59:05;102279.38;;;0.97;100.00
4836;BME280;66719;51.226;6.902;2023-01-25T13:02:06;102267.56;;;1.02;100.00
4836;BME280;66719;51.226;6.902;2023-01-25T13:04:58;102253.13;;;1.06;100.00
4836;BME280;66719;51.226;6.902;2023-01-25T13:07:37;102244.53;;;1.05;100.00
4836;BME280;66719;51.226;6.902;2023-01-25T13:10:16;102248.09;;;1.09;100.00
4836;BME280;66719;51.226;6.902;2023-01-25T13:12:54;102247.44;;;1.13;100.00
4836;BME280;66719;51.226;6.902;2023-01-25T13:15:44;102237.50;;;1.03;100.00
4836;BME280;66719;51.226;6.902;2023-01-25T13:20:55;102227.28;;;1.04;100.00
4836;BME280;66719;51.226;6.902;2023-01-25T13:23:43;102230.19;;;1.12;100.00
4836;BME280;66719;51.226;6.902;2023-01-25T13:28:53;102231.41;;;1.20;100.00
4836;BME280;66719;51.226;6.902;2023-01-25T13:37:18;102212.28;;;1.15;100.00
4836;BME280;66719;51.226;6.902;2023-01-25T13:39:49;102214.88;;;1.15;100.00
4836;BME280;66719;51.226;6.902;2023-01-25T13:44:52;102218.56;;;1.02;100.00
4836;BME280;66719;51.226;6.902;2023-01-25T13:47:22;102217.69;;;1.02;100.00
4836;BME280;66719;51.226;6.902;2023-01-25T13:50:07;102215.53;;;0.92;100.00
4836;BME280;66719;51.226;6.902;2023-01-25T13:52:35;102210.50;;;0.95;100.00
4836;BME280;66719;51.226;6.902;2023-01-25T13:55:14;102211.94;;;0.88;100.00
4836;BME280;66719;51.226;6.902;2023-01-25T13:57:41;102210.91;;;0.84;100.00
4836;BME280;66719;51.226;6.902;2023-01-25T14:00:14;102209.38;;;0.88;100.00
4836;BME280;66719;51.226;6.902;2023-01-25T14:02:43;102204.00;;;0.83;100.00
4836;BME280;66719;51.226;6.902;2023-01-25T14:05:23;102200.00;;;0.90;100.00
4836;BME280;66719;51.226;6.902;2023-01-25T14:07:54;102203.53;;;0.92;100.00
4836;BME280;66719;51.226;6.902;2023-01-25T14:10:24;102195.84;;;0.94;100.00
4836;BME280;66719;51.226;6.902;2023-01-25T14:12:57;102190.84;;;0.97;100.00
4836;BME280;66719;51.226;6.902;2023-01-25T14:15:29;102190.09;;;0.99;100.00
4836;BME280;66719;51.226;6.902;2023-01-25T14:20:40;102185.00;;;1.01;100.00
4836;BME280;66719;51.226;6.902;2023-01-25T14:23:25;102182.47;;;1.02;100.00
4836;BME280;66719;51.226;6.902;2023-01-25T14:25:53;102181.34;;;0.96;100.00
4836;BME280;66719;51.226;6.902;2023-01-25T14:28:21;102180.31;;;0.92;100.00
4836;BME280;66719;51.226;6.902;2023-01-25T14:30:52;102183.03;;;0.95;100.00
4836;BME280;66719;51.226;6.902;2023-01-25T14:33:28;102178.84;;;0.97;100.00
4836;BME280;66719;51.226;6.902;2023-01-25T14:36:07;102176.31;;;0.99;100.00
4836;BME280;66719;51.226;6.902;2023-01-25T14:38:50;102177.88;;;0.95;100.00
4836;BME280;66719;51.226;6.902;2023-01-25T14:43:47;102174.00;;;0.85;100.00
4836;BME280;66719;51.226;6.902;2023-01-25T14:46:20;102173.34;;;0.90;100.00
4836;BME280;66719;51.226;6.902;2023-01-25T14:48:47;102172.47;;;0.89;100.00
4836;BME280;66719;51.226;6.902;2023-01-25T14:51:27;102176.19;;;0.96;100.00